Time;durP1;ratioP1;P1;durP2;ratioP2;P2;SDS_P1;SDS_P2;PMS_P1;PMS_P2;Temp;Humidity;BMP_temperature;BMP_pressure;BME280_temperature;BME280_humidity;BME280_pressure;Samples;Min_cycle;Max_cycle;Signal;HPM_P1;HPM_P2
2021/12/27 00:01:02;;;;;;;8.77;5.43;;;-4.20;99.90;;;;;;4971039;28;20478;-63
2021/12/27 00:03:31;;;;;;;10.43;5.57;;;-4.20;99.90;;;;;;4954420;28;21012;-64
2021/12/27 00:05:59;;;;;;;8.43;5.10;;;-4.10;99.90;;;;;;4952748;28;20481;-63
2021/12/27 00:08:27;;;;;;;9.77;5.17;;;-4.10;99.90;;;;;;4961966;28;20462;-63
2021/12/27 00:10:55;;;;;;;8.60;5.13;;;-4.10;99.90;;;;;;4971848;28;20486;-63
2021/12/27 00:13:23;;;;;;;9.63;5.07;;;-4.10;99.90;;;;;;4971509;28;20845;-63
2021/12/27 00:15:51;;;;;;;10.87;5.67;;;-4.10;99.90;;;;;;4971819;28;20478;-63
2021/12/27 00:18:21;;;;;;;10.50;5.80;;;-4.10;99.90;;;;;;4971522;28;20556;-63
2021/12/27 00:20:49;;;;;;;8.60;5.37;;;-4.10;99.90;;;;;;4971655;28;20872;-63
2021/12/27 00:23:17;;;;;;;8.87;5.17;;;-4.10;99.90;;;;;;4971400;28;20902;-63
2021/12/27 00:25:45;;;;;;;11.13;5.57;;;-4.10;99.90;;;;;;4971325;28;21039;-63
2021/12/27 00:28:13;;;;;;;8.43;5.23;;;-4.00;99.90;;;;;;4971507;28;20565;-63
2021/12/27 00:30:41;;;;;;;10.23;5.30;;;-4.00;99.90;;;;;;4965311;28;20574;-63
2021/12/27 00:33:10;;;;;;;11.80;5.93;;;-4.00;99.90;;;;;;4968275;28;21024;-63
2021/12/27 00:35:40;;;;;;;12.27;6.13;;;-4.00;99.90;;;;;;4971172;28;20513;-63
2021/12/27 00:38:09;;;;;;;9.63;5.87;;;-3.90;99.90;;;;;;4973165;28;20504;-63
2021/12/27 00:40:37;;;;;;;9.07;6.10;;;-3.90;99.90;;;;;;4975118;28;21065;-63
2021/12/27 00:43:05;;;;;;;10.80;5.40;;;-4.00;99.90;;;;;;4975145;28;20883;-63
2021/12/27 00:45:33;;;;;;;11.07;5.53;;;-3.90;99.90;;;;;;4973922;28;20519;-63
2021/12/27 00:48:02;;;;;;;10.40;5.90;;;-3.90;99.90;;;;;;4960694;28;20514;-63
2021/12/27 00:50:30;;;;;;;9.47;5.27;;;-3.90;99.90;;;;;;4972278;28;21064;-63
2021/12/27 00:52:59;;;;;;;11.20;5.70;;;-3.90;99.90;;;;;;4960770;28;20538;-63
2021/12/27 00:55:28;;;;;;;8.13;5.80;;;-3.90;99.90;;;;;;4966509;28;20873;-63
2021/12/27 00:57:56;;;;;;;9.93;5.50;;;-3.80;99.90;;;;;;4974714;28;20477;-63
2021/12/27 01:00:26;;;;;;;8.50;5.23;;;-3.90;99.90;;;;;;4974844;28;20985;-63
2021/12/27 01:02:56;;;;;;;11.60;6.00;;;-3.80;99.90;;;;;;4974731;28;20556;-64
2021/12/27 01:05:26;;;;;;;12.67;5.33;;;-3.80;99.90;;;;;;4974827;28;20470;-63
2021/12/27 01:07:54;;;;;;;9.73;5.83;;;-3.80;99.90;;;;;;4974637;28;20954;-63
2021/12/27 01:13:23;;;;;;;11.70;5.97;;;-3.80;99.90;;;;;;4968910;28;20537;-63
2021/12/27 01:16:10;;;;;;;12.10;6.17;;;-3.80;99.90;;;;;;4974755;28;20564;-63
2021/12/27 01:18:42;;;;;;;10.43;6.27;;;-3.80;99.90;;;;;;4974273;28;20498;-63
2021/12/27 01:21:11;;;;;;;11.10;5.63;;;-3.80;99.90;;;;;;4974553;28;20531;-63
2021/12/27 01:23:40;;;;;;;10.57;5.70;;;-3.70;99.90;;;;;;4969194;28;20475;-63
2021/12/27 01:26:10;;;;;;;9.97;5.10;;;-3.80;99.90;;;;;;4958836;28;20483;-63
2021/12/27 01:28:38;;;;;;;10.80;5.67;;;-3.70;99.90;;;;;;4954896;28;20481;-63
2021/12/27 01:31:07;;;;;;;8.20;5.20;;;-3.70;99.90;;;;;;4954989;28;20506;-63
2021/12/27 01:33:35;;;;;;;10.73;6.33;;;-3.70;99.90;;;;;;4954787;28;20521;-63
2021/12/27 01:36:05;;;;;;;8.67;5.60;;;-3.70;99.90;;;;;;4954986;28;20838;-63
2021/12/27 01:38:35;;;;;;;12.77;6.20;;;-3.60;99.90;;;;;;4954495;28;21003;-63
2021/12/27 01:41:05;;;;;;;9.90;5.63;;;-3.60;99.90;;;;;;4954904;28;20565;-63
2021/12/27 01:43:36;;;;;;;9.37;5.67;;;-3.70;99.90;;;;;;4954596;28;20482;-63
2021/12/27 01:46:07;;;;;;;12.20;6.50;;;-3.70;99.90;;;;;;4954901;28;20554;-63
2021/12/27 01:48:39;;;;;;;10.27;5.70;;;-3.70;99.90;;;;;;4954577;28;20486;-63
2021/12/27 01:51:10;;;;;;;9.40;6.47;;;-3.70;99.90;;;;;;4954762;28;20502;-63
2021/12/27 01:53:40;;;;;;;11.53;6.40;;;-3.70;99.90;;;;;;4958430;28;21055;-63
2021/12/27 01:56:10;;;;;;;10.30;6.13;;;-3.70;99.90;;;;;;4981435;28;20485;-63
2021/12/27 01:58:40;;;;;;;10.13;6.20;;;-3.80;99.90;;;;;;4970588;28;20540;-62
2021/12/27 02:01:11;;;;;;;13.27;6.23;;;-3.70;99.90;;;;;;4973669;28;20512;-63
2021/12/27 02:03:43;;;;;;;11.23;5.77;;;-3.80;99.90;;;;;;4973517;28;20524;-63
2021/12/27 02:06:13;;;;;;;12.20;6.37;;;-3.70;99.90;;;;;;4973771;28;21085;-63
2021/12/27 02:08:43;;;;;;;13.50;6.97;;;-3.70;99.90;;;;;;4973475;28;20496;-63
2021/12/27 02:11:13;;;;;;;9.67;5.10;;;-3.60;99.90;;;;;;4973780;28;20902;-63
2021/12/27 02:13:44;;;;;;;11.43;6.40;;;-3.70;99.90;;;;;;4972902;28;20532;-63
2021/12/27 02:16:15;;;;;;;13.97;6.70;;;-3.70;99.90;;;;;;4973552;28;20506;-63
2021/12/27 02:18:44;;;;;;;13.87;6.20;;;-3.70;99.90;;;;;;4973245;28;20516;-63
2021/12/27 02:21:14;;;;;;;10.17;6.10;;;-3.80;99.90;;;;;;4973515;28;20857;-63
2021/12/27 02:23:43;;;;;;;13.53;6.87;;;-3.80;99.90;;;;;;4970555;28;20571;-63
2021/12/27 02:26:11;;;;;;;9.63;6.13;;;-3.80;99.90;;;;;;4979028;28;20481;-63
2021/12/27 02:28:40;;;;;;;11.60;6.33;;;-3.80;99.90;;;;;;4980992;28;20532;-63
2021/12/27 02:31:09;;;;;;;11.40;6.23;;;-3.70;99.90;;;;;;4973179;28;20483;-63
2021/12/27 02:33:38;;;;;;;14.33;6.40;;;-3.70;99.90;;;;;;4972596;28;20478;-63
2021/12/27 02:36:07;;;;;;;12.97;7.37;;;-3.70;99.90;;;;;;4973155;28;20476;-63
2021/12/27 02:38:42;;;;;;;13.87;6.20;;;-3.60;99.90;;;;;;4972829;28;20481;-63
2021/12/27 02:41:11;;;;;;;12.37;7.43;;;-3.70;99.90;;;;;;4973154;28;20513;-63
2021/12/27 02:43:42;;;;;;;12.30;6.20;;;-3.70;99.90;;;;;;4972758;28;20981;-63
2021/12/27 02:46:12;;;;;;;12.87;6.80;;;-3.70;99.90;;;;;;4973000;28;20482;-63
2021/12/27 02:48:45;;;;;;;12.93;7.00;;;-3.60;99.90;;;;;;4972578;28;20477;-63
2021/12/27 02:51:15;;;;;;;12.20;6.60;;;-3.60;99.90;;;;;;4973080;28;20489;-63
2021/12/27 02:53:45;;;;;;;12.73;6.63;;;-3.60;99.90;;;;;;4971655;28;20484;-63
2021/12/27 02:56:13;;;;;;;11.93;6.87;;;-3.60;99.90;;;;;;4964625;28;20533;-63
2021/12/27 02:58:41;;;;;;;12.70;7.10;;;-3.60;99.90;;;;;;4972494;28;21000;-63
2021/12/27 03:01:12;;;;;;;13.97;7.20;;;-3.60;99.90;;;;;;4972209;28;20489;-63
2021/12/27 03:03:40;;;;;;;12.87;7.53;;;-3.60;99.90;;;;;;4958862;28;20682;-63
2021/12/27 03:06:09;;;;;;;14.57;7.53;;;-3.60;99.90;;;;;;4961332;28;20522;-63
2021/12/27 03:08:39;;;;;;;14.67;7.67;;;-3.60;99.90;;;;;;4965123;28;20477;-63
2021/12/27 03:11:10;;;;;;;15.00;8.17;;;-3.60;99.90;;;;;;4966765;28;20560;-63
2021/12/27 03:13:40;;;;;;;15.60;7.27;;;-3.60;99.90;;;;;;4966219;28;20572;-63
2021/12/27 03:16:11;;;;;;;14.40;7.67;;;-3.70;99.90;;;;;;4966936;28;21168;-63
2021/12/27 03:18:43;;;;;;;16.97;7.57;;;-3.70;99.90;;;;;;4966825;28;20857;-63
2021/12/27 03:21:11;;;;;;;13.97;7.30;;;-3.70;99.90;;;;;;4966854;28;20545;-63
2021/12/27 03:23:41;;;;;;;13.43;8.13;;;-3.70;99.90;;;;;;4964389;28;21057;-63
2021/12/27 03:26:11;;;;;;;12.10;7.10;;;-3.60;99.90;;;;;;4966066;28;20815;-63
2021/12/27 03:28:39;;;;;;;16.70;7.53;;;-3.60;99.90;;;;;;4965836;28;20496;-63
2021/12/27 03:31:09;;;;;;;14.80;7.67;;;-3.50;99.90;;;;;;4966371;28;20482;-63
2021/12/27 03:33:37;;;;;;;12.57;7.40;;;-3.40;99.90;;;;;;4964623;28;20481;-63
2021/12/27 03:36:08;;;;;;;13.47;8.10;;;-3.50;99.90;;;;;;4965958;28;20482;-63
2021/12/27 03:38:41;;;;;;;15.43;7.87;;;-3.50;99.90;;;;;;4965475;28;20492;-63
2021/12/27 03:41:14;;;;;;;16.50;8.60;;;-3.50;99.90;;;;;;4965512;28;20507;-64
2021/12/27 03:43:43;;;;;;;16.33;7.77;;;-3.50;99.90;;;;;;4963893;28;20561;-63
2021/12/27 03:46:12;;;;;;;17.63;8.10;;;-3.40;99.90;;;;;;4948225;28;20482;-63
2021/12/27 03:48:40;;;;;;;14.37;8.10;;;-3.40;99.90;;;;;;4945845;28;20483;-64
2021/12/27 03:51:08;;;;;;;16.37;8.23;;;-3.50;99.90;;;;;;4946211;28;20477;-63
2021/12/27 03:53:36;;;;;;;13.83;7.63;;;-3.40;99.90;;;;;;4945337;28;20895;-63
2021/12/27 03:56:08;;;;;;;16.53;8.10;;;-3.30;99.90;;;;;;4946458;28;20466;-63
2021/12/27 03:58:49;;;;;;;15.87;8.67;;;-3.30;99.90;;;;;;4946331;28;20546;-63
2021/12/27 04:01:21;;;;;;;15.27;8.70;;;-3.40;99.90;;;;;;4946562;28;20537;-64
2021/12/27 04:03:51;;;;;;;15.23;8.73;;;-3.40;99.90;;;;;;4944185;28;20482;-64
2021/12/27 04:06:20;;;;;;;12.57;7.93;;;-3.40;99.90;;;;;;4945785;28;20484;-63
2021/12/27 04:08:48;;;;;;;17.67;8.23;;;-3.50;99.90;;;;;;4945923;28;20514;-63
2021/12/27 04:11:17;;;;;;;15.83;8.17;;;-3.40;99.90;;;;;;4945673;28;20478;-64
2021/12/27 04:13:46;;;;;;;18.63;8.63;;;-3.40;99.90;;;;;;4947720;28;20475;-63
2021/12/27 04:16:14;;;;;;;14.43;8.20;;;-3.50;99.90;;;;;;4949301;28;20487;-63
2021/12/27 04:18:42;;;;;;;14.37;8.43;;;-3.50;99.90;;;;;;4949785;28;20478;-64
2021/12/27 04:21:10;;;;;;;14.43;8.37;;;-3.50;99.90;;;;;;4949230;28;20500;-63
2021/12/27 04:23:39;;;;;;;20.10;9.43;;;-3.40;99.90;;;;;;4904907;28;1276392;-63
2021/12/27 04:26:07;;;;;;;17.57;9.20;;;-3.50;99.90;;;;;;4950969;28;20239;-63
2021/12/27 04:28:35;;;;;;;15.37;9.13;;;-3.50;99.90;;;;;;4950413;28;20558;-63
2021/12/27 04:31:05;;;;;;;19.20;11.07;;;-3.40;99.90;;;;;;4950587;28;20780;-63
2021/12/27 04:33:33;;;;;;;19.00;11.17;;;-3.40;99.90;;;;;;4948840;28;20243;-63
2021/12/27 04:36:01;;;;;;;20.00;10.17;;;-3.50;99.90;;;;;;4950817;28;20550;-64
2021/12/27 04:38:29;;;;;;;15.20;9.30;;;-3.40;99.90;;;;;;4969489;28;20478;-63
2021/12/27 04:40:57;;;;;;;17.20;8.50;;;-3.30;99.90;;;;;;4969920;28;20481;-63
2021/12/27 04:43:26;;;;;;;18.43;9.40;;;-3.30;99.90;;;;;;4968511;28;20473;-64
2021/12/27 04:45:54;;;;;;;15.97;9.63;;;-3.40;99.90;;;;;;4969889;28;20481;-64
2021/12/27 04:48:25;;;;;;;19.03;10.17;;;-3.40;99.90;;;;;;4969727;28;20818;-63
2021/12/27 04:50:54;;;;;;;20.83;10.33;;;-3.30;99.90;;;;;;4969812;28;20477;-63
2021/12/27 04:53:22;;;;;;;19.83;10.47;;;-3.30;99.90;;;;;;4968524;28;20486;-63
2021/12/27 04:55:51;;;;;;;19.40;9.90;;;-3.40;99.90;;;;;;4970025;28;21031;-63
2021/12/27 04:58:22;;;;;;;20.47;10.80;;;-3.30;99.90;;;;;;4969788;28;20509;-63
2021/12/27 05:00:53;;;;;;;17.30;9.17;;;-3.40;99.90;;;;;;4970112;28;20481;-64
2021/12/27 05:03:21;;;;;;;22.80;10.83;;;-3.40;99.90;;;;;;4968809;28;20986;-63
2021/12/27 05:05:51;;;;;;;23.00;12.13;;;-3.40;99.90;;;;;;4968061;28;20481;-63
2021/12/27 05:08:19;;;;;;;17.30;10.23;;;-3.40;99.90;;;;;;4969461;28;20522;-64
2021/12/27 05:10:48;;;;;;;25.07;10.70;;;-3.40;99.90;;;;;;4969416;28;20482;-63
2021/12/27 05:13:17;;;;;;;19.67;10.43;;;-3.20;99.90;;;;;;4966712;28;20582;-64
2021/12/27 05:15:46;;;;;;;20.73;11.13;;;-3.10;99.90;;;;;;4969339;28;20822;-63
2021/12/27 05:18:15;;;;;;;21.03;11.17;;;-3.10;99.90;;;;;;4968828;28;20502;-63
2021/12/27 05:20:43;;;;;;;21.20;10.90;;;-3.20;99.90;;;;;;4968889;28;20492;-64
2021/12/27 05:23:13;;;;;;;19.70;10.87;;;-3.20;99.90;;;;;;4966974;28;20486;-64
2021/12/27 05:25:41;;;;;;;22.53;11.53;;;-3.20;99.90;;;;;;4969344;28;20485;-63
2021/12/27 05:28:09;;;;;;;18.27;9.90;;;-3.20;99.90;;;;;;4968792;28;20478;-64
2021/12/27 05:30:38;;;;;;;21.77;11.43;;;-3.20;99.90;;;;;;4969011;28;20529;-64
2021/12/27 05:33:07;;;;;;;20.87;11.33;;;-3.20;99.90;;;;;;4967707;28;20482;-63
2021/12/27 05:35:35;;;;;;;19.50;10.73;;;-3.20;99.90;;;;;;4951913;28;20518;-63
2021/12/27 05:38:03;;;;;;;19.07;10.83;;;-3.20;99.90;;;;;;4949349;28;20482;-64
2021/12/27 05:40:33;;;;;;;21.33;11.57;;;-3.00;99.90;;;;;;4949485;28;20490;-64
2021/12/27 05:43:01;;;;;;;18.87;11.23;;;-3.10;99.90;;;;;;4948161;28;20486;-63
2021/12/27 05:45:29;;;;;;;22.77;11.27;;;-3.20;99.90;;;;;;4969008;28;20924;-63
2021/12/27 05:47:57;;;;;;;24.83;12.27;;;-3.20;99.90;;;;;;4968913;28;20484;-64
2021/12/27 05:50:26;;;;;;;18.97;11.40;;;-3.00;99.90;;;;;;4968069;28;20506;-64
2021/12/27 05:52:54;;;;;;;19.20;10.37;;;-3.00;99.90;;;;;;4967076;28;20478;-63
2021/12/27 05:55:23;;;;;;;17.97;11.30;;;-3.00;99.90;;;;;;4968078;28;21721;-63
2021/12/27 05:57:52;;;;;;;20.63;11.67;;;-3.10;99.90;;;;;;4968025;28;20473;-64
2021/12/27 06:00:21;;;;;;;24.90;13.10;;;-3.10;99.90;;;;;;4968475;28;20467;-64
2021/12/27 06:02:51;;;;;;;21.57;12.33;;;-3.10;99.90;;;;;;4967202;28;20481;-64
2021/12/27 06:05:19;;;;;;;23.30;13.27;;;-3.00;99.90;;;;;;4968535;28;20495;-63
2021/12/27 06:07:48;;;;;;;23.77;12.73;;;-3.10;99.90;;;;;;4968176;28;20856;-64
2021/12/27 06:10:16;;;;;;;24.17;12.50;;;-3.20;99.90;;;;;;4968121;28;20478;-64
2021/12/27 06:12:45;;;;;;;21.80;11.63;;;-3.20;99.90;;;;;;4966442;28;21013;-64
2021/12/27 06:15:15;;;;;;;23.40;12.03;;;-3.10;99.90;;;;;;4968144;28;20569;-63
2021/12/27 06:17:43;;;;;;;25.03;12.60;;;-3.10;99.90;;;;;;4967612;28;20576;-63
2021/12/27 06:20:13;;;;;;;23.20;12.40;;;-3.20;99.90;;;;;;4968483;28;20839;-64
2021/12/27 06:22:45;;;;;;;22.57;12.57;;;-3.20;99.90;;;;;;4961207;28;20578;-64
2021/12/27 06:25:13;;;;;;;24.47;12.13;;;-3.10;99.90;;;;;;4948803;28;21073;-64
2021/12/27 06:27:42;;;;;;;18.50;11.47;;;-3.10;99.90;;;;;;4947873;28;20483;-63
2021/12/27 06:30:12;;;;;;;23.40;12.10;;;-3.00;99.90;;;;;;4948691;28;21007;-63
2021/12/27 06:32:42;;;;;;;23.60;12.60;;;-3.00;99.90;;;;;;4947345;28;20471;-63
2021/12/27 06:35:12;;;;;;;24.70;12.50;;;-3.10;99.90;;;;;;4947775;28;20779;-64
2021/12/27 06:37:42;;;;;;;19.10;12.80;;;-2.80;99.90;;;;;;4948309;28;21037;-63
2021/12/27 06:40:12;;;;;;;22.17;13.30;;;-2.90;99.90;;;;;;4948586;28;20487;-63
2021/12/27 06:42:41;;;;;;;24.80;12.70;;;-2.90;99.90;;;;;;4947548;28;20821;-64
2021/12/27 06:45:11;;;;;;;27.70;13.17;;;-2.90;99.90;;;;;;4948041;28;20475;-63
2021/12/27 06:47:40;;;;;;;24.17;12.90;;;-3.00;99.90;;;;;;4947462;28;20938;-64
2021/12/27 06:50:10;;;;;;;25.13;12.77;;;-2.70;99.90;;;;;;4948431;28;20848;-64
2021/12/27 06:52:38;;;;;;;25.87;13.20;;;-2.80;99.90;;;;;;4947135;28;20915;-64
2021/12/27 06:55:07;;;;;;;24.70;13.77;;;-2.90;99.90;;;;;;4948179;28;20888;-64
2021/12/27 06:57:35;;;;;;;23.03;12.83;;;-2.80;99.90;;;;;;4947592;28;20466;-64
2021/12/27 07:00:11;;;;;;;26.20;13.40;;;-2.80;99.90;;;;;;4943002;28;20491;-64
2021/12/27 07:02:42;;;;;;;24.50;13.93;;;-2.80;99.90;;;;;;4935721;28;20559;-64
2021/12/27 07:05:12;;;;;;;24.47;13.80;;;-2.70;99.90;;;;;;4928165;28;20488;-64
2021/12/27 07:07:42;;;;;;;25.53;13.80;;;-2.70;99.90;;;;;;4940919;28;20494;-63
2021/12/27 07:10:13;;;;;;;26.67;13.80;;;-2.80;99.90;;;;;;4947582;28;20895;-64
2021/12/27 07:12:42;;;;;;;25.33;13.93;;;-2.80;99.90;;;;;;4945358;28;20490;-64
2021/12/27 07:15:10;;;;;;;24.00;12.73;;;-2.80;99.90;;;;;;4946911;28;20644;-64
2021/12/27 07:17:39;;;;;;;25.40;13.83;;;-2.90;99.90;;;;;;4945090;28;21067;-63
2021/12/27 07:20:11;;;;;;;29.00;14.23;;;-2.80;99.90;;;;;;4944564;28;20578;-63
2021/12/27 07:22:40;;;;;;;26.40;14.00;;;-2.80;99.90;;;;;;4938217;28;20538;-64
2021/12/27 07:25:10;;;;;;;23.63;13.47;;;-2.80;99.90;;;;;;4962972;28;20518;-64
2021/12/27 07:27:41;;;;;;;30.07;14.57;;;-2.80;99.90;;;;;;4964067;28;21066;-64
2021/12/27 07:30:12;;;;;;;27.27;13.23;;;-2.70;99.90;;;;;;4964476;28;20482;-63
2021/12/27 07:32:41;;;;;;;23.20;12.77;;;-2.70;99.90;;;;;;4963505;28;20916;-63
2021/12/27 07:35:11;;;;;;;25.17;12.07;;;-2.70;99.90;;;;;;4964596;28;20479;-64
2021/12/27 07:37:40;;;;;;;27.37;14.20;;;-2.70;99.90;;;;;;4964544;28;20508;-64
2021/12/27 07:40:09;;;;;;;25.73;13.50;;;-2.70;99.90;;;;;;4964295;28;21195;-64
2021/12/27 07:42:37;;;;;;;23.63;14.07;;;-2.70;99.90;;;;;;4963019;28;20888;-63
2021/12/27 07:45:06;;;;;;;25.83;13.23;;;-2.70;99.90;;;;;;4963447;28;20482;-64
2021/12/27 07:47:34;;;;;;;26.50;14.27;;;-2.70;99.90;;;;;;4963650;28;21005;-64
2021/12/27 07:50:04;;;;;;;31.53;14.97;;;-2.70;99.90;;;;;;4963448;28;20481;-64
2021/12/27 07:52:34;;;;;;;27.03;15.93;;;-2.60;99.90;;;;;;4962981;28;20598;-64
2021/12/27 07:55:02;;;;;;;28.03;14.80;;;-2.60;99.90;;;;;;4963172;28;20486;-63
2021/12/27 07:57:30;;;;;;;25.60;14.23;;;-2.60;99.90;;;;;;4963846;28;20906;-64
2021/12/27 08:00:03;;;;;;;24.07;14.70;;;-2.50;99.90;;;;;;4963560;28;21016;-64
2021/12/27 08:02:39;;;;;;;27.63;14.07;;;-2.50;99.90;;;;;;4962346;28;20552;-64
2021/12/27 08:05:08;;;;;;;28.03;14.93;;;-2.50;99.90;;;;;;4963306;28;20466;-64
2021/12/27 08:07:37;;;;;;;22.60;12.20;;;-2.40;99.90;;;;;;4963088;28;20497;-64
2021/12/27 08:10:07;;;;;;;25.67;14.53;;;-2.50;99.90;;;;;;4963418;28;20497;-64
2021/12/27 08:12:35;;;;;;;24.27;14.13;;;-2.50;99.90;;;;;;4966534;28;20506;-64
2021/12/27 08:15:04;;;;;;;25.20;14.37;;;-2.50;99.90;;;;;;4970101;28;20994;-64
2021/12/27 08:17:33;;;;;;;27.77;15.17;;;-2.40;99.90;;;;;;4970856;28;20485;-64
2021/12/27 08:20:01;;;;;;;25.90;14.03;;;-2.50;99.90;;;;;;4971179;28;20474;-64
2021/12/27 08:22:29;;;;;;;27.57;14.50;;;-2.50;99.90;;;;;;4960337;28;20544;-64
2021/12/27 08:24:59;;;;;;;26.37;14.43;;;-2.40;99.90;;;;;;4960424;28;20502;-64
2021/12/27 08:27:29;;;;;;;27.53;15.63;;;-2.40;99.90;;;;;;4967422;28;20468;-64
2021/12/27 08:30:00;;;;;;;25.60;14.27;;;-2.40;99.90;;;;;;4971442;28;20473;-64
2021/12/27 08:32:28;;;;;;;27.47;15.90;;;-2.40;99.90;;;;;;4979351;28;20845;-64
2021/12/27 08:34:56;;;;;;;29.37;15.60;;;-2.40;99.90;;;;;;4971555;28;20462;-64
2021/12/27 08:37:24;;;;;;;27.80;14.97;;;-2.30;99.90;;;;;;4971419;28;20828;-64
2021/12/27 08:39:52;;;;;;;28.33;14.63;;;-2.30;99.90;;;;;;4971571;28;20478;-64
2021/12/27 08:42:26;;;;;;;25.93;14.77;;;-2.30;99.90;;;;;;4971491;28;20517;-64
2021/12/27 08:44:54;;;;;;;27.53;15.43;;;-2.20;99.90;;;;;;4955797;28;20951;-64
2021/12/27 08:47:23;;;;;;;28.80;14.97;;;-2.30;99.90;;;;;;4951948;28;20482;-64
2021/12/27 08:49:51;;;;;;;21.63;12.80;;;-2.20;99.90;;;;;;4952230;28;20474;-64
2021/12/27 08:52:31;;;;;;;28.30;15.57;;;-2.20;99.90;;;;;;4951934;28;20967;-64
2021/12/27 08:55:03;;;;;;;26.23;14.83;;;-2.30;99.90;;;;;;4967690;28;20993;-64
2021/12/27 08:57:33;;;;;;;26.10;14.87;;;-2.20;99.90;;;;;;4971358;28;20477;-64
2021/12/27 09:00:05;;;;;;;26.67;15.33;;;-2.20;99.90;;;;;;4974814;28;20548;-64
2021/12/27 09:02:33;;;;;;;29.17;15.60;;;-2.10;99.90;;;;;;4973742;28;20997;-64
2021/12/27 09:05:02;;;;;;;26.50;15.13;;;-2.10;99.90;;;;;;4964780;28;20494;-64
2021/12/27 09:07:30;;;;;;;28.67;15.73;;;-2.10;99.90;;;;;;4954515;28;20888;-64
2021/12/27 09:09:58;;;;;;;24.30;15.00;;;-2.10;99.90;;;;;;4959544;28;20904;-64
2021/12/27 09:12:26;;;;;;;26.40;15.47;;;-2.10;99.90;;;;;;4955079;28;20467;-64
2021/12/27 09:14:56;;;;;;;27.37;16.50;;;-2.00;99.90;;;;;;4955355;28;20516;-64
2021/12/27 09:17:24;;;;;;;25.47;15.57;;;-2.00;99.90;;;;;;4951325;28;20993;-64
2021/12/27 09:19:52;;;;;;;28.40;15.70;;;-2.00;99.90;;;;;;4943395;28;20495;-64
2021/12/27 09:22:20;;;;;;;29.13;16.43;;;-1.80;99.90;;;;;;4952399;28;20482;-64
2021/12/27 09:24:50;;;;;;;29.17;16.87;;;-1.90;99.90;;;;;;4955056;28;20550;-64
2021/12/27 09:27:19;;;;;;;28.87;16.47;;;-1.90;99.90;;;;;;4954920;28;20490;-64
2021/12/27 09:29:47;;;;;;;31.33;17.67;;;-1.90;99.90;;;;;;4954977;28;21005;-64
2021/12/27 09:32:16;;;;;;;32.80;18.73;;;-1.80;99.90;;;;;;4955148;28;20566;-64
2021/12/27 09:34:45;;;;;;;28.13;16.63;;;-1.80;99.90;;;;;;4952777;28;20522;-64
2021/12/27 09:37:13;;;;;;;26.50;16.13;;;-1.90;99.90;;;;;;4956542;28;20475;-64
2021/12/27 09:39:41;;;;;;;32.83;18.03;;;-1.80;99.90;;;;;;4964578;28;20511;-64
2021/12/27 09:42:09;;;;;;;26.03;16.30;;;-1.70;99.90;;;;;;4954938;28;20469;-64
2021/12/27 09:44:37;;;;;;;30.10;16.40;;;-1.70;99.90;;;;;;4954749;28;20565;-64
2021/12/27 09:47:06;;;;;;;29.23;16.97;;;-1.70;99.90;;;;;;4954887;28;21014;-64
2021/12/27 09:49:35;;;;;;;25.70;16.33;;;-1.70;99.90;;;;;;4954620;28;20481;-64
2021/12/27 09:52:04;;;;;;;27.20;17.13;;;-1.70;99.90;;;;;;4954676;28;20513;-64
2021/12/27 09:54:32;;;;;;;30.33;16.63;;;-1.60;99.90;;;;;;4954566;28;20467;-64
2021/12/27 09:57:00;;;;;;;27.37;16.67;;;-1.60;99.90;;;;;;4950779;28;20506;-64
2021/12/27 09:59:28;;;;;;;33.00;17.60;;;-1.50;99.90;;;;;;4954261;28;20478;-64
2021/12/27 10:01:57;;;;;;;29.73;16.93;;;-1.50;99.90;;;;;;4954649;28;21487;-64
2021/12/27 10:04:25;;;;;;;32.10;18.37;;;-1.50;99.90;;;;;;4961293;28;20466;-64
2021/12/27 10:06:55;;;;;;;31.30;17.53;;;-1.50;99.90;;;;;;4973919;28;20510;-64
2021/12/27 10:09:24;;;;;;;32.80;17.47;;;-1.60;99.90;;;;;;4984822;28;20500;-64
2021/12/27 10:11:52;;;;;;;30.77;16.53;;;-1.50;99.90;;;;;;4992526;28;20481;-64
2021/12/27 10:14:24;;;;;;;28.97;17.80;;;-1.50;99.90;;;;;;4976485;28;20612;-64
2021/12/27 10:16:54;;;;;;;31.63;17.97;;;-1.50;99.90;;;;;;4966791;28;20490;-64
2021/12/27 10:19:24;;;;;;;33.00;18.30;;;-1.50;99.90;;;;;;4971347;28;20484;-64
2021/12/27 10:21:54;;;;;;;31.00;18.10;;;-1.40;99.90;;;;;;4973333;28;20544;-64
2021/12/27 10:24:29;;;;;;;29.67;16.80;;;-1.40;99.90;;;;;;4973281;28;20470;-65
2021/12/27 10:27:00;;;;;;;32.97;17.87;;;-1.40;99.90;;;;;;4973648;28;20478;-64
2021/12/27 10:29:30;;;;;;;30.77;17.33;;;-1.40;99.90;;;;;;4973272;28;21026;-64
2021/12/27 10:32:04;;;;;;;31.13;17.27;;;-1.40;99.90;;;;;;4975133;28;20504;-64
2021/12/27 10:34:34;;;;;;;30.60;17.47;;;-1.30;99.90;;;;;;4968697;28;20497;-64
2021/12/27 10:37:17;;;;;;;30.60;17.93;;;-1.30;99.90;;;;;;4962529;28;20959;-64
2021/12/27 10:39:49;;;;;;;35.10;18.67;;;-1.30;99.90;;;;;;4963950;28;20470;-64
2021/12/27 10:42:18;;;;;;;31.87;16.93;;;-1.40;99.90;;;;;;4975682;28;20513;-64
2021/12/27 10:44:51;;;;;;;35.27;18.83;;;-1.30;99.90;;;;;;4948056;28;20521;-64
2021/12/27 10:47:39;;;;;;;35.73;19.10;;;-1.10;99.90;;;;;;4953995;28;20475;-64
2021/12/27 10:50:11;;;;;;;33.47;20.33;;;-1.20;99.90;;;;;;4972848;28;20478;-64
2021/12/27 10:53:00;;;;;;;34.53;20.13;;;-1.20;99.90;;;;;;4971748;28;20536;-65
2021/12/27 10:55:34;;;;;;;32.13;19.20;;;-1.10;99.90;;;;;;4971782;28;21287;-64
2021/12/27 10:58:19;;;;;;;33.67;18.93;;;-1.10;99.90;;;;;;4985271;28;20481;-65
2021/12/27 11:00:50;;;;;;;33.30;19.60;;;-1.10;99.90;;;;;;4971788;28;20529;-64
2021/12/27 11:03:30;;;;;;;31.53;19.37;;;-1.00;99.90;;;;;;4965868;28;20494;-64
2021/12/27 11:06:00;;;;;;;32.17;20.00;;;-1.10;99.90;;;;;;4957324;28;20521;-65
2021/12/27 11:08:30;;;;;;;32.73;19.40;;;-1.00;99.90;;;;;;4968482;28;20478;-64
2021/12/27 11:10:59;;;;;;;32.27;19.37;;;-0.90;99.90;;;;;;4946676;28;20482;-64
2021/12/27 11:13:29;;;;;;;33.17;18.50;;;-1.00;99.90;;;;;;4943349;28;20471;-64
2021/12/27 11:15:57;;;;;;;33.03;20.13;;;-1.00;99.90;;;;;;4952972;28;20463;-64
2021/12/27 11:18:26;;;;;;;37.07;19.70;;;-1.00;99.90;;;;;;4959592;28;20478;-64
2021/12/27 11:20:56;;;;;;;34.43;20.80;;;-0.90;99.90;;;;;;4966772;28;20478;-64
2021/12/27 11:23:26;;;;;;;37.03;21.03;;;-0.90;99.90;;;;;;4970518;28;20488;-65
2021/12/27 11:26:04;;;;;;;35.73;21.37;;;-1.00;99.90;;;;;;4967238;28;20482;-64
2021/12/27 11:28:34;;;;;;;32.90;19.10;;;-1.00;99.90;;;;;;4962263;28;20576;-65
2021/12/27 11:31:07;;;;;;;37.40;20.93;;;-1.00;99.90;;;;;;4963540;28;20564;-64
2021/12/27 11:33:54;;;;;;;36.17;20.10;;;-1.00;99.90;;;;;;4963052;28;20584;-64
2021/12/27 11:36:23;;;;;;;34.40;20.03;;;-1.00;99.90;;;;;;4962448;28;20494;-65
2021/12/27 11:38:52;;;;;;;32.70;20.47;;;-1.00;99.90;;;;;;4963353;28;20483;-65
2021/12/27 11:41:34;;;;;;;33.57;20.43;;;-0.90;99.90;;;;;;4964050;28;20482;-64
2021/12/27 11:44:05;;;;;;;32.30;20.17;;;-0.90;99.90;;;;;;4964065;28;20497;-64
2021/12/27 11:46:57;;;;;;;33.10;19.43;;;-0.90;99.90;;;;;;4962244;28;20898;-64
2021/12/27 11:49:44;;;;;;;31.83;20.10;;;-0.90;99.90;;;;;;4962817;28;20612;-64
2021/12/27 11:52:20;;;;;;;34.27;19.77;;;-0.90;99.90;;;;;;4963736;28;21254;-65
2021/12/27 11:54:51;;;;;;;35.03;19.63;;;-0.90;99.90;;;;;;4963688;28;20525;-64
2021/12/27 11:57:53;;;;;;;34.77;20.80;;;-0.80;99.90;;;;;;4962310;28;20525;-64
2021/12/27 12:00:37;;;;;;;36.37;20.90;;;-0.80;99.90;;;;;;4962694;28;20835;-64
2021/12/27 12:03:12;;;;;;;34.90;20.30;;;-0.90;99.90;;;;;;4962554;28;20521;-65
2021/12/27 12:05:43;;;;;;;37.77;21.47;;;-0.80;99.90;;;;;;4964678;28;20480;-65
2021/12/27 12:08:13;;;;;;;32.43;20.50;;;-0.80;99.90;;;;;;4963885;28;20569;-65
2021/12/27 12:10:51;;;;;;;35.77;22.10;;;-0.80;99.90;;;;;;4964985;28;20517;-64
2021/12/27 12:13:23;;;;;;;35.40;21.60;;;-0.80;99.90;;;;;;4964985;28;21417;-64
2021/12/27 12:16:01;;;;;;;35.40;20.63;;;-0.80;99.90;;;;;;4964382;28;20490;-64
2021/12/27 12:18:30;;;;;;;37.80;21.50;;;-0.80;99.90;;;;;;4961656;28;20489;-64
2021/12/27 12:20:59;;;;;;;37.97;22.50;;;-0.80;99.90;;;;;;4963473;28;20492;-64
2021/12/27 12:23:57;;;;;;;37.23;20.50;;;-0.70;99.90;;;;;;4962762;28;20517;-64
2021/12/27 12:26:26;;;;;;;35.10;20.23;;;-0.70;99.90;;;;;;4960963;28;20536;-65
2021/12/27 12:29:02;;;;;;;39.30;22.97;;;-0.70;99.90;;;;;;4963264;28;20899;-64
2021/12/27 12:31:34;;;;;;;34.80;20.80;;;-0.70;99.90;;;;;;4962857;28;20509;-65
2021/12/27 12:34:09;;;;;;;34.20;20.87;;;-0.70;99.90;;;;;;4965035;28;20498;-64
2021/12/27 12:36:52;;;;;;;36.40;21.73;;;-0.60;99.90;;;;;;4965003;28;20513;-64
2021/12/27 12:39:22;;;;;;;36.23;20.63;;;-0.60;99.90;;;;;;4967114;28;20588;-65
2021/12/27 12:41:51;;;;;;;41.73;22.30;;;-0.70;99.90;;;;;;4966073;28;21108;-65
2021/12/27 12:44:21;;;;;;;33.20;20.50;;;-0.70;99.90;;;;;;4966868;28;20861;-65
2021/12/27 12:46:50;;;;;;;41.83;24.13;;;-0.70;99.90;;;;;;4965422;28;20579;-64
2021/12/27 12:49:22;;;;;;;34.47;21.70;;;-0.70;99.90;;;;;;4965303;28;20514;-65